Terminal Aerodrome Forecast
Issued by NWS Atlanta, GA

Current Version | Previous Version | Text Only | Print | Product List | Glossary On
Versions: 1 2 3 4 5 6 7 8 9 10 11 12 13 14 15 16 17 18 19 20 21 22 23 24 25 26 27 28 29 30
000
FTAK31 PAJN 282325
TAFAHN
TAF
PAHN 282325Z 2900/2924 30010KT P6SM FEW200
      TEMPO 2900/2904 VRB05KT
     FM290400 VRB03KT P6SM SCT150
     FM291200 30010KT P6SM BKN200
      TEMPO 2915/2918 30012G20KT
      AMD LTD TO CLD VIS AND WIND=

USA.gov is the U.S. government's official web portal to all federal, state and local government web resources and services.